createdAt,value
2023-02-17T00:02:16.106Z,57377.03
2023-02-17T00:04:46.721Z,57377.03
2023-02-17T00:07:17.089Z,57373.85
2023-02-17T00:09:47.773Z,57386.56
2023-02-17T00:12:18.449Z,57395.03
2023-02-17T00:14:50.477Z,57380.21
2023-02-17T00:17:21.035Z,57367.50
2023-02-17T00:19:57.966Z,57367.50
2023-02-17T00:22:28.734Z,57370.68
2023-02-17T00:24:59.072Z,57370.68
2023-02-17T00:27:29.691Z,57363.26
2023-02-17T00:30:00.241Z,57363.26
2023-02-17T00:32:30.804Z,57382.32
2023-02-17T00:35:02.004Z,57387.62
2023-02-17T00:37:35.533Z,57387.62
2023-02-17T00:40:08.471Z,57370.68
2023-02-17T00:42:39.450Z,57390.80
2023-02-17T00:45:09.751Z,57390.80
2023-02-17T00:47:40.209Z,57377.03
2023-02-17T00:50:10.982Z,57377.03
2023-02-17T00:52:41.291Z,57371.73
2023-02-17T00:55:12.100Z,57390.80
2023-02-17T00:57:42.353Z,57390.80
2023-02-17T01:00:13.513Z,57355.85
2023-02-17T01:02:44.099Z,57388.68
2023-02-17T01:05:14.458Z,57379.15
2023-02-17T01:07:45.239Z,57379.15
2023-02-17T01:10:16.320Z,57380.21
2023-02-17T01:12:47.859Z,57392.91
2023-02-17T01:15:18.144Z,57373.85
2023-02-17T01:17:50.045Z,57372.79
2023-02-17T01:20:20.774Z,57368.55
2023-02-17T01:22:51.672Z,57368.55
2023-02-17T01:25:22.083Z,57383.38
2023-02-17T01:27:52.445Z,57372.79
2023-02-17T01:30:23.006Z,57361.14
2023-02-17T01:32:53.907Z,57361.14
2023-02-17T01:35:24.200Z,57359.03
2023-02-17T01:37:54.548Z,57359.03
2023-02-17T01:40:25.628Z,57365.38
2023-02-17T01:42:56.217Z,57353.73
2023-02-17T01:45:32.409Z,57374.91
2023-02-17T01:48:30.772Z,57374.91
2023-02-17T01:51:28.477Z,57379.15
2023-02-17T01:54:04.553Z,57397.15
2023-02-17T01:56:37.565Z,57357.96
2023-02-17T01:59:10.804Z,57383.38
2023-02-17T02:01:41.415Z,57383.38
2023-02-17T02:04:14.853Z,57382.32
2023-02-17T02:06:47.217Z,57370.68
2023-02-17T02:09:38.846Z,57373.85
2023-02-17T02:12:23.591Z,57373.85
2023-02-17T02:14:56.753Z,57365.38
2023-02-17T02:18:00.423Z,57365.38
2023-02-17T02:20:39.473Z,57369.62
2023-02-17T02:23:45.638Z,57369.62
2023-02-17T02:26:27.740Z,57367.50
2023-02-17T02:29:35.276Z,57352.67
2023-02-17T02:32:30.246Z,57352.67
2023-02-17T02:35:09.591Z,57361.14
2023-02-17T02:38:00.765Z,57366.44
2023-02-17T02:40:33.996Z,57359.03
2023-02-17T02:43:05.712Z,57386.56
2023-02-17T02:45:37.668Z,57360.08
2023-02-17T02:48:09.204Z,57383.38
2023-02-17T02:51:05.548Z,57383.38
2023-02-17T02:56:46.731Z,57378.09
2023-02-17T02:59:39.151Z,57372.79
2023-02-17T03:02:20.736Z,57364.32
2023-02-17T03:05:14.336Z,57372.79
2023-02-17T03:07:58.031Z,57383.38
2023-02-17T03:10:29.109Z,57392.91
2023-02-17T03:13:04.559Z,57367.50
2023-02-17T03:15:36.226Z,57377.03
2023-02-17T03:18:06.617Z,57377.03
2023-02-17T03:20:46.042Z,57356.91
2023-02-17T03:23:18.159Z,57397.15
2023-02-17T03:25:49.143Z,57400.33
2023-02-17T03:28:19.549Z,57400.33
2023-02-17T03:30:50.094Z,57384.44
2023-02-17T03:33:20.876Z,57379.15
2023-02-17T03:35:51.400Z,57366.44
2023-02-17T03:38:21.738Z,57371.73
2023-02-17T03:40:52.934Z,57371.73
2023-02-17T03:43:23.298Z,57382.32
2023-02-17T03:45:53.715Z,57388.68
2023-02-17T03:48:24.299Z,57372.79
2023-02-17T03:50:55.341Z,57380.21
2023-02-17T03:53:25.648Z,57401.39
2023-02-17T03:55:55.826Z,57401.39
2023-02-17T03:58:26.142Z,57402.45
2023-02-17T04:00:56.619Z,57402.45
2023-02-17T04:03:26.946Z,57392.91
2023-02-17T04:05:57.552Z,57370.68
2023-02-17T04:08:28.669Z,57370.68
2023-02-17T04:11:02.891Z,57392.91
2023-02-17T04:13:34.203Z,57363.26
2023-02-17T04:16:06.137Z,57386.56
2023-02-17T04:18:38.575Z,57386.56
2023-02-17T04:21:08.864Z,57365.38
2023-02-17T04:23:39.484Z,57382.32
2023-02-17T04:26:10.320Z,57377.03
2023-02-17T04:28:42.667Z,57405.62
2023-02-17T04:31:13.121Z,57359.03
2023-02-17T04:33:43.764Z,57360.08
2023-02-17T04:36:14.195Z,57375.97
2023-02-17T04:38:44.513Z,57375.97
2023-02-17T04:41:14.928Z,57368.55
2023-02-17T04:43:46.073Z,57398.21
2023-02-17T04:46:16.740Z,57367.50
2023-02-17T04:48:47.197Z,57353.73
2023-02-17T04:51:17.834Z,57391.86
2023-02-17T04:53:48.289Z,57360.08
2023-02-17T04:56:18.688Z,57379.15
2023-02-17T04:58:49.518Z,57379.15
2023-02-17T05:01:19.962Z,57365.38
2023-02-17T05:03:50.245Z,57388.68
2023-02-17T05:06:21.056Z,57346.32
2023-02-17T05:08:51.445Z,57346.32
2023-02-17T05:11:22.570Z,57390.80
2023-02-17T05:13:53.018Z,57390.80
2023-02-17T05:16:23.441Z,57363.26
2023-02-17T05:18:55.530Z,57389.74
2023-02-17T05:21:25.892Z,57362.20
2023-02-17T05:23:56.258Z,57413.04
2023-02-17T05:26:27.075Z,57373.85
2023-02-17T05:28:57.857Z,57360.08
2023-02-17T05:31:28.234Z,57359.03
2023-02-17T05:33:58.506Z,57359.03
2023-02-17T05:36:29.012Z,57395.03
2023-02-17T05:38:59.628Z,57347.38
2023-02-17T05:41:30.166Z,57377.03
2023-02-17T05:44:01.072Z,57375.97
2023-02-17T05:46:31.903Z,57379.15
2023-02-17T05:49:03.006Z,57373.85
2023-02-17T05:51:34.305Z,57353.73
2023-02-17T05:54:04.986Z,57353.73
2023-02-17T05:56:35.753Z,57404.57
2023-02-17T05:59:06.136Z,57351.61
2023-02-17T06:01:37.454Z,57384.44
2023-02-17T06:04:08.071Z,57368.55
2023-02-17T06:06:39.699Z,57338.90
2023-02-17T06:09:10.074Z,57338.90
2023-02-17T06:11:41.795Z,57348.43
2023-02-17T06:14:12.342Z,57348.43
2023-02-17T06:16:43.359Z,57339.96
2023-02-17T06:19:14.137Z,57365.38
2023-02-17T06:21:44.870Z,57357.96
2023-02-17T06:24:15.070Z,57381.27
2023-02-17T06:26:45.821Z,57356.91
2023-02-17T06:29:16.761Z,57359.03
2023-02-17T06:31:47.197Z,57329.37
2023-02-17T06:34:17.749Z,57371.73
2023-02-17T06:36:48.022Z,57356.91
2023-02-17T06:39:18.442Z,57356.91
2023-02-17T06:41:50.354Z,57356.91
2023-02-17T06:44:23.746Z,57365.38
2023-02-17T06:46:55.819Z,57361.14
2023-02-17T06:49:26.694Z,57351.61
2023-02-17T06:52:03.621Z,57351.61
2023-02-17T06:54:34.201Z,57353.73
2023-02-17T06:57:05.128Z,57353.73
2023-02-17T06:59:35.799Z,57346.32
2023-02-17T07:02:07.136Z,57317.72
2023-02-17T07:04:37.441Z,57324.07
2023-02-17T07:07:09.536Z,57324.07
2023-02-17T07:09:40.388Z,57356.91
2023-02-17T07:12:12.042Z,57326.20
2023-02-17T07:14:44.267Z,57346.32
2023-02-17T07:17:14.947Z,57327.25
2023-02-17T07:19:45.820Z,57326.20
2023-02-17T07:22:20.062Z,57350.55
2023-02-17T07:24:52.060Z,57342.08
2023-02-17T07:27:51.478Z,57342.08
2023-02-17T07:30:31.014Z,57343.14
2023-02-17T07:33:06.820Z,57333.61
2023-02-17T07:35:53.672Z,57333.61
2023-02-17T07:38:32.086Z,57344.20
2023-02-17T07:41:17.282Z,57342.08
2023-02-17T07:43:56.165Z,57352.67
2023-02-17T07:46:27.769Z,57312.43
2023-02-17T07:49:00.162Z,57332.55
2023-02-17T07:51:30.564Z,57332.55
2023-02-17T07:54:05.797Z,57335.73
2023-02-17T07:56:36.468Z,57336.79
2023-02-17T07:59:13.938Z,57362.20
2023-02-17T08:01:53.352Z,57362.20
2023-02-17T08:04:23.963Z,57341.02
2023-02-17T08:06:56.186Z,57327.25
2023-02-17T08:09:26.504Z,57359.03
2023-02-17T08:11:59.014Z,57338.90
2023-02-17T08:14:31.779Z,57338.90
2023-02-17T08:17:03.614Z,57362.20
2023-02-17T08:19:47.916Z,57351.61
2023-02-17T08:22:10.804Z,57338.90
2023-02-17T08:24:41.911Z,57309.25
2023-02-17T08:27:15.936Z,57309.25
2023-02-17T08:29:46.776Z,57335.73
2023-02-17T08:32:18.428Z,57325.14
2023-02-17T08:34:53.736Z,57338.90
2023-02-17T08:37:25.217Z,57327.25
2023-02-17T08:39:55.638Z,57366.44
2023-02-17T08:42:29.068Z,57366.44
2023-02-17T08:44:59.786Z,57326.20
2023-02-17T08:47:30.300Z,57317.72
2023-02-17T08:50:00.619Z,57315.61
2023-02-17T08:52:31.780Z,57321.96
2023-02-17T08:55:02.578Z,57326.20
2023-02-17T08:57:33.118Z,57275.36
2023-02-17T09:00:06.942Z,57275.36
2023-02-17T09:02:37.609Z,57282.77
2023-02-17T09:05:08.187Z,57314.55
2023-02-17T09:07:41.112Z,57337.84
2023-02-17T09:10:13.108Z,57281.71
2023-02-17T09:12:44.651Z,57296.54
2023-02-17T09:15:15.774Z,57282.77
2023-02-17T09:17:46.231Z,57320.90
2023-02-17T09:20:24.759Z,57324.07
2023-02-17T09:22:51.395Z,57324.07
2023-02-17T09:25:21.226Z,57332.55
2023-02-17T09:27:51.846Z,57328.31
2023-02-17T09:30:22.621Z,57300.78
2023-02-17T09:32:53.112Z,57308.19
2023-02-17T09:35:27.307Z,57308.19
2023-02-17T09:37:59.148Z,57288.07
2023-02-17T09:40:49.836Z,57309.25
2023-02-17T09:43:23.024Z,57308.19
2023-02-17T09:45:56.264Z,57310.31
2023-02-17T09:48:32.516Z,57311.37
2023-02-17T09:51:05.735Z,57300.78
2023-02-17T09:53:45.288Z,57300.78
2023-02-17T09:56:21.595Z,57339.96
2023-02-17T09:58:59.128Z,57324.07
2023-02-17T10:01:34.735Z,57344.20
2023-02-17T10:04:14.781Z,57344.20
2023-02-17T10:06:47.819Z,57310.31
2023-02-17T10:09:28.489Z,57313.48
2023-02-17T10:12:14.025Z,57328.31
2023-02-17T10:14:59.940Z,57282.77
2023-02-17T10:17:42.346Z,57313.48
2023-02-17T10:20:27.428Z,57292.30
2023-02-17T10:23:06.443Z,57294.42
2023-02-17T10:25:59.991Z,57310.31
2023-02-17T10:28:56.004Z,57319.84
2023-02-17T10:31:32.967Z,57323.02
2023-02-17T10:34:06.133Z,57274.30
2023-02-17T10:42:38.368Z,57285.95
2023-02-17T10:45:17.576Z,57285.95
2023-02-17T10:47:49.278Z,57318.78
2023-02-17T10:50:25.211Z,57313.48
2023-02-17T10:52:58.652Z,57302.89
2023-02-17T10:55:43.563Z,57300.78
2023-02-17T10:58:30.912Z,57328.31
2023-02-17T11:01:02.971Z,57316.66
2023-02-17T11:03:34.981Z,57298.66
2023-02-17T11:06:08.678Z,57299.72
2023-02-17T11:08:42.145Z,57316.66
2023-02-17T11:11:25.589Z,57320.90
2023-02-17T11:14:07.783Z,57320.90
2023-02-17T11:16:47.005Z,57308.19
2023-02-17T11:19:29.115Z,57315.61
2023-02-17T11:22:01.225Z,57289.13
2023-02-17T11:24:34.739Z,57316.66
2023-02-17T11:27:11.118Z,57323.02
2023-02-17T11:29:42.084Z,57323.02
2023-02-17T11:32:13.414Z,57301.84
2023-02-17T11:34:46.776Z,57323.02
2023-02-17T11:37:22.648Z,57323.02
2023-02-17T11:39:56.123Z,57275.36
2023-02-17T11:42:32.303Z,57275.36
2023-02-17T11:45:05.737Z,57329.37
2023-02-17T11:47:39.382Z,57326.20
2023-02-17T11:50:42.351Z,57297.60
2023-02-17T11:53:42.907Z,57301.84
2023-02-17T11:56:21.801Z,57315.61
2023-02-17T11:59:07.119Z,57332.55
2023-02-17T12:01:55.295Z,57332.55
2023-02-17T12:04:30.978Z,57326.20
2023-02-17T12:07:21.160Z,57327.25
2023-02-17T12:09:57.170Z,57353.73
2023-02-17T12:12:51.334Z,57314.55
2023-02-17T12:15:58.495Z,57323.02
2023-02-17T12:18:51.047Z,57319.84
2023-02-17T12:21:47.610Z,57319.84
2023-02-17T12:24:49.389Z,57333.61
2023-02-17T12:27:29.261Z,57326.20
2023-02-17T12:33:42.070Z,57310.31
2023-02-17T12:36:15.746Z,57336.79
2023-02-17T12:38:51.745Z,57310.31
2023-02-17T12:41:27.874Z,57329.37
2023-02-17T12:44:04.034Z,57329.37
2023-02-17T12:46:43.697Z,57320.90
2023-02-17T12:49:32.044Z,57329.37
2023-02-17T12:52:08.404Z,57313.48
2023-02-17T12:54:56.298Z,57329.37
2023-02-17T12:57:46.056Z,57316.66
2023-02-17T13:03:04.288Z,57321.96
2023-02-17T13:05:50.018Z,57314.55
2023-02-17T13:08:26.660Z,57314.55
2023-02-17T13:11:04.224Z,57316.66
2023-02-17T13:13:37.814Z,57335.73
2023-02-17T13:16:14.069Z,57341.02
2023-02-17T13:18:50.500Z,57308.19
2023-02-17T13:21:29.249Z,57332.55
2023-02-17T13:24:05.418Z,57316.66
2023-02-17T13:26:38.574Z,57332.55
2023-02-17T13:32:09.211Z,57334.67
2023-02-17T13:34:45.121Z,57331.49
2023-02-17T13:37:18.698Z,57333.61
2023-02-17T13:39:49.432Z,57338.90
2023-02-17T13:42:37.872Z,57311.37
2023-02-17T13:45:30.636Z,57327.25
2023-02-17T13:48:27.581Z,57338.90
2023-02-17T13:51:00.572Z,57319.84
2023-02-17T13:53:35.505Z,57334.67
2023-02-17T13:56:14.906Z,57360.08
2023-02-17T13:58:46.317Z,57345.26
2023-02-17T14:01:20.025Z,57348.43
2023-02-17T14:03:53.003Z,57324.07
2023-02-17T14:06:31.933Z,57329.37
2023-02-17T14:09:13.811Z,57326.20
2023-02-17T14:11:45.625Z,57336.79
2023-02-17T14:14:17.574Z,57329.37
2023-02-17T14:16:58.029Z,57330.43
2023-02-17T14:19:29.614Z,57330.43
2023-02-17T14:22:06.026Z,57352.67
2023-02-17T14:24:38.246Z,57347.38
2023-02-17T14:27:11.312Z,57352.67
2023-02-17T14:29:47.164Z,57325.14
2023-02-17T14:32:28.742Z,57326.20
2023-02-17T14:35:10.830Z,57346.32
2023-02-17T14:37:44.722Z,57325.14
2023-02-17T14:40:21.254Z,57347.38
2023-02-17T14:42:51.982Z,57347.38
2023-02-17T14:45:22.255Z,57335.73
2023-02-17T14:47:53.502Z,57345.26
2023-02-17T14:50:23.812Z,57335.73
2023-02-17T14:52:54.278Z,57323.02
2023-02-17T14:55:36.464Z,57351.61
2023-02-17T14:58:06.901Z,57344.20
2023-02-17T15:00:39.877Z,57327.25
2023-02-17T15:03:11.451Z,57342.08
2023-02-17T15:05:43.212Z,57338.90
2023-02-17T15:08:17.126Z,57350.55
2023-02-17T15:10:47.883Z,57337.84
2023-02-17T15:13:21.701Z,57352.67
2023-02-17T15:15:55.626Z,57339.96
2023-02-17T15:18:27.936Z,57351.61
2023-02-17T15:20:59.520Z,57351.61
2023-02-17T15:23:34.121Z,57330.43
2023-02-17T15:26:05.985Z,57333.61
2023-02-17T15:28:36.593Z,57346.32
2023-02-17T15:31:10.206Z,57346.32
2023-02-17T15:33:40.847Z,57342.08
2023-02-17T15:36:20.077Z,57344.20
2023-02-17T15:41:49.322Z,57348.43
2023-02-17T15:44:22.706Z,57342.08
2023-02-17T15:49:55.149Z,57368.55
2023-02-17T15:52:38.515Z,57320.90
2023-02-17T15:55:10.207Z,57352.67
2023-02-17T15:57:43.156Z,57342.08
2023-02-17T16:00:19.361Z,57342.08
2023-02-17T16:02:51.547Z,57379.15
2023-02-17T16:05:24.980Z,57330.43
2023-02-17T16:07:56.040Z,57348.43
2023-02-17T16:10:28.558Z,57339.96
2023-02-17T16:13:01.131Z,57335.73
2023-02-17T16:15:34.407Z,57335.73
2023-02-17T16:18:08.028Z,57342.08
2023-02-17T16:20:38.450Z,57342.08
2023-02-17T16:23:09.272Z,57356.91
2023-02-17T16:25:42.260Z,57348.43
2023-02-17T16:28:22.836Z,57348.43
2023-02-17T16:31:04.676Z,57336.79
2023-02-17T16:33:35.059Z,57314.55
2023-02-17T16:36:09.884Z,57350.55
2023-02-17T16:38:40.258Z,57335.73
2023-02-17T16:41:18.029Z,57323.02
2023-02-17T16:43:54.159Z,57366.44
2023-02-17T16:46:46.494Z,57351.61
2023-02-17T16:49:21.134Z,57351.61
2023-02-17T16:51:54.572Z,57321.96
2023-02-17T16:54:31.022Z,57356.91
2023-02-17T16:57:01.742Z,57330.43
2023-02-17T16:59:35.176Z,57330.43
2023-02-17T17:02:06.689Z,57323.02
2023-02-17T17:04:37.039Z,57379.15
2023-02-17T17:07:09.438Z,57341.02
2023-02-17T17:09:40.342Z,57341.02
2023-02-17T17:12:18.896Z,57330.43
2023-02-17T17:14:49.815Z,57345.26
2023-02-17T17:17:20.473Z,57341.02
2023-02-17T17:19:51.190Z,57339.96
2023-02-17T17:22:21.498Z,57339.96
2023-02-17T17:24:52.039Z,57349.49
2023-02-17T17:27:22.649Z,57350.55
2023-02-17T17:29:53.497Z,57350.55
2023-02-17T17:32:25.791Z,57352.67
2023-02-17T17:34:56.340Z,57362.20
2023-02-17T17:37:29.809Z,57317.72
2023-02-17T17:40:02.010Z,57334.67
2023-02-17T17:42:43.442Z,57336.79
2023-02-17T17:45:20.435Z,57328.31
2023-02-17T17:47:59.844Z,57328.31
2023-02-17T17:53:28.399Z,57343.14
2023-02-17T17:56:03.892Z,57338.90
2023-02-17T17:58:36.168Z,57338.90
2023-02-17T18:01:07.216Z,57348.43
2023-02-17T18:03:40.162Z,57348.43
2023-02-17T18:06:16.662Z,57366.44
2023-02-17T18:08:52.879Z,57357.96
2023-02-17T18:11:55.267Z,57357.96
2023-02-17T18:14:56.964Z,57373.85
2023-02-17T18:17:28.129Z,57359.03
2023-02-17T18:20:01.107Z,57345.26
2023-02-17T18:22:32.139Z,57350.55
2023-02-17T18:25:07.289Z,57356.91
2023-02-17T18:28:01.931Z,57361.14
2023-02-17T18:30:35.215Z,57357.96
2023-02-17T18:33:07.190Z,57357.96
2023-02-17T18:35:39.656Z,57354.79
2023-02-17T18:38:21.522Z,57354.79
2023-02-17T18:41:06.988Z,57330.43
2023-02-17T18:43:40.482Z,57364.32
2023-02-17T18:46:14.301Z,57364.32
2023-02-17T18:48:49.307Z,57361.14
2023-02-17T18:51:20.503Z,57361.14
2023-02-17T19:00:22.273Z,57339.96
2023-02-17T19:03:15.442Z,57364.32
2023-02-17T19:05:48.204Z,57364.32
2023-02-17T19:08:22.196Z,57331.49
2023-02-17T19:10:57.746Z,57324.07
2023-02-17T19:13:35.450Z,57359.03
2023-02-17T19:16:11.701Z,57359.03
2023-02-17T19:18:57.802Z,57326.20
2023-02-17T19:21:21.457Z,57325.14
2023-02-17T19:23:56.519Z,57339.96
2023-02-17T19:26:38.716Z,57344.20
2023-02-17T19:29:12.508Z,57344.20
2023-02-17T19:31:48.048Z,57339.96
2023-02-17T19:37:14.096Z,57349.49
2023-02-17T19:39:44.480Z,57349.49
2023-02-17T19:42:16.712Z,57336.79
2023-02-17T19:44:48.599Z,57352.67
2023-02-17T19:47:19.610Z,57366.44
2023-02-17T19:49:51.709Z,57366.44
2023-02-17T19:52:25.474Z,57329.37
2023-02-17T19:54:58.622Z,57347.38
2023-02-17T19:57:29.330Z,57333.61
2023-02-17T20:00:04.857Z,57342.08
2023-02-17T20:02:35.845Z,57342.08
2023-02-17T20:05:08.487Z,57325.14
2023-02-17T20:07:39.133Z,57344.20
2023-02-17T20:10:12.250Z,57365.38
2023-02-17T20:12:44.913Z,57337.84
2023-02-17T20:15:15.401Z,57337.84
2023-02-17T20:17:46.351Z,57352.67
2023-02-17T20:20:16.897Z,57352.67
2023-02-17T20:22:47.141Z,57354.79
2023-02-17T20:25:17.459Z,57347.38
2023-02-17T20:27:47.827Z,57347.38
2023-02-17T20:30:19.529Z,57313.48
2023-02-17T20:32:54.623Z,57313.48
2023-02-17T20:35:48.600Z,57363.26
2023-02-17T20:38:19.669Z,57362.20
2023-02-17T20:40:50.088Z,57356.91
2023-02-17T20:43:21.544Z,57360.08
2023-02-17T20:45:52.532Z,57356.91
2023-02-17T20:48:23.984Z,57345.26
2023-02-17T20:50:55.333Z,57373.85
2023-02-17T20:53:27.092Z,57357.96
2023-02-17T20:55:57.832Z,57361.14
2023-02-17T20:58:28.227Z,57339.96
2023-02-17T21:00:58.809Z,57365.38
2023-02-17T21:03:30.038Z,57365.38
2023-02-17T21:06:02.214Z,57327.25
2023-02-17T21:08:32.815Z,57327.25
2023-02-17T21:11:03.639Z,57375.97
2023-02-17T21:13:34.018Z,57381.27
2023-02-17T21:16:05.296Z,57339.96
2023-02-17T21:18:36.780Z,57334.67
2023-02-17T21:21:07.654Z,57351.61
2023-02-17T21:23:39.241Z,57351.61
2023-02-17T21:26:12.836Z,57357.96
2023-02-17T21:28:45.853Z,57341.02
2023-02-17T21:31:17.553Z,57341.02
2023-02-17T21:33:48.577Z,57351.61
2023-02-17T21:36:19.300Z,57316.66
2023-02-17T21:38:50.605Z,57316.66
2023-02-17T21:41:23.738Z,57357.96
2023-02-17T21:43:54.773Z,57366.44
2023-02-17T21:46:26.182Z,57363.26
2023-02-17T21:49:00.351Z,57370.68
2023-02-17T21:51:31.258Z,57370.68
2023-02-17T21:54:01.670Z,57380.21
2023-02-17T21:56:32.658Z,57349.49
2023-02-17T21:59:04.142Z,57348.43
2023-02-17T22:01:36.113Z,57339.96
2023-02-17T22:04:06.417Z,57339.96
2023-02-17T22:06:40.143Z,57341.02
2023-02-17T22:09:13.079Z,57348.43
2023-02-17T22:11:45.333Z,57329.37
2023-02-17T22:14:20.648Z,57329.37
2023-02-17T22:16:51.692Z,57373.85
2023-02-17T22:19:24.651Z,57373.85
2023-02-17T22:21:55.291Z,57357.96
2023-02-17T22:24:26.263Z,57350.55
2023-02-17T22:26:56.843Z,57350.55
2023-02-17T22:29:27.171Z,57375.97
2023-02-17T22:31:57.586Z,57350.55
2023-02-17T22:34:28.746Z,57350.55
2023-02-17T22:36:59.248Z,57367.50
2023-02-17T22:39:29.706Z,57339.96
2023-02-17T22:42:00.037Z,57333.61
2023-02-17T22:44:31.068Z,57349.49
2023-02-17T22:47:01.968Z,57370.68
2023-02-17T22:49:32.604Z,57370.68
2023-02-17T22:52:03.026Z,57362.20
2023-02-17T22:54:34.245Z,57362.20
2023-02-17T22:57:05.489Z,57360.08
2023-02-17T22:59:36.545Z,57348.43
2023-02-17T23:02:06.974Z,57342.08
2023-02-17T23:04:37.862Z,57369.62
2023-02-17T23:07:09.706Z,57369.62
2023-02-17T23:09:40.441Z,57359.03
2023-02-17T23:12:10.812Z,57360.08
2023-02-17T23:14:42.705Z,57360.08
2023-02-17T23:17:15.151Z,57357.96
2023-02-17T23:19:45.464Z,57361.14
2023-02-17T23:22:19.367Z,57368.55
2023-02-17T23:24:49.696Z,57368.55
2023-02-17T23:27:20.268Z,57336.79
2023-02-17T23:29:51.024Z,57336.79
2023-02-17T23:32:22.169Z,57343.14
2023-02-17T23:34:52.389Z,57390.80
2023-02-17T23:37:22.763Z,57339.96
2023-02-17T23:39:53.373Z,57356.91
2023-02-17T23:42:24.233Z,57367.50
2023-02-17T23:48:10.749Z,57352.67
2023-02-17T23:50:42.187Z,57349.49
2023-02-17T23:53:14.625Z,57349.49
2023-02-17T23:55:52.485Z,57352.67
2023-02-17T23:58:23.702Z,57347.38
